Port Blandford, Canada
Current Conditions -  °F | °C
As of 10:14 AM on Friday 28 Nov 2014 (Local Time) from CYQX Reporting Station
Light Snow Light Snow  
Wind Chill: 17°   Ceiling: 500
Heat Index: 28°   Visibility: 2mi
Dew Point: 28°   Wind: 14mph
Humidity: 100%   Direction: 330°NNW
Pressure: 29.82"   Gusts: NA
Location:  48.35°N, 54.17°W
Report Text: CYQX 281314Z 33012KT 2SM R03/4000VP6000FT/U R13/5500VP6000FT/U -FZDZ -SN BKN005 OVC011 M02/M02 A2982 RMK SN3SF4SC1 PRESRR SLP106
Loading
Personal Weather Stations






























Interactive Weather Map New forecast layout! Learn more

10-Day Weather Forecast

Advertisements
Track Severe Weather on mobile